createdAt,value
2022-12-25T00:01:32.034Z,100901.78
2022-12-25T00:03:35.607Z,100906.06
2022-12-25T00:05:39.577Z,100895.53
2022-12-25T00:07:42.908Z,100902.09
2022-12-25T00:09:46.513Z,100905.69
2022-12-25T00:11:49.862Z,100904.13
2022-12-25T00:13:53.179Z,100817.50
2022-12-25T00:15:57.124Z,100898.88
2022-12-25T00:18:01.816Z,100897.34
2022-12-25T00:20:06.111Z,100891.91
2022-12-25T00:22:09.650Z,100885.09
2022-12-25T00:24:12.919Z,100893.13
2022-12-25T00:26:18.523Z,100888.97
2022-12-25T00:28:23.752Z,100839.56
2022-12-25T00:30:27.194Z,100901.00
2022-12-25T00:32:30.556Z,100882.72
2022-12-25T00:34:35.588Z,100899.00
2022-12-25T00:36:41.941Z,100898.38
2022-12-25T00:38:46.468Z,100893.28
2022-12-25T00:40:49.815Z,100868.53
2022-12-25T00:42:53.123Z,100892.72
2022-12-25T00:44:56.729Z,100902.38
2022-12-25T00:47:00.252Z,100899.00
2022-12-25T00:49:04.285Z,100888.16
2022-12-25T00:51:12.431Z,100898.94
2022-12-25T00:53:15.767Z,100900.69
2022-12-25T00:55:19.140Z,100904.09
2022-12-25T00:57:22.478Z,100901.41
2022-12-25T00:59:25.882Z,100905.66
2022-12-25T01:01:29.482Z,100904.72
2022-12-25T01:03:33.077Z,100906.06
2022-12-25T01:05:36.475Z,100906.72
2022-12-25T01:07:41.158Z,100917.91
2022-12-25T01:10:02.663Z,100913.41
2022-12-25T01:12:06.246Z,100906.25
2022-12-25T01:14:09.677Z,100906.78
2022-12-25T01:16:13.002Z,100910.88
2022-12-25T01:18:16.316Z,100914.72
2022-12-25T01:20:19.786Z,100912.19
2022-12-25T01:22:23.097Z,100911.47
2022-12-25T01:24:27.839Z,100894.28
2022-12-25T01:26:31.348Z,100919.53
2022-12-25T01:28:34.923Z,100916.88
2022-12-25T01:30:38.472Z,100918.41
2022-12-25T01:32:41.824Z,100917.75
2022-12-25T01:34:48.143Z,100917.03
2022-12-25T01:36:53.914Z,100924.06
2022-12-25T01:38:57.375Z,100912.22
2022-12-25T01:41:02.109Z,100909.66
2022-12-25T01:43:05.547Z,100909.19
2022-12-25T01:45:32.875Z,100906.59
2022-12-25T01:47:36.562Z,100898.03
2022-12-25T01:49:42.028Z,100907.50
2022-12-25T01:51:49.188Z,100897.28
2022-12-25T01:53:52.566Z,100892.94
2022-12-25T01:56:02.518Z,100898.31
2022-12-25T01:58:07.432Z,100891.41
2022-12-25T02:00:12.919Z,100908.94
2022-12-25T02:02:16.891Z,100894.59
2022-12-25T02:04:38.440Z,100912.34
2022-12-25T02:06:42.821Z,100908.78
2022-12-25T02:08:46.319Z,100916.31
2022-12-25T02:10:49.957Z,100905.69
2022-12-25T02:12:54.059Z,100898.88
2022-12-25T02:15:06.102Z,100901.38
2022-12-25T02:17:19.112Z,100918.44
2022-12-25T02:19:39.095Z,100919.13
2022-12-25T02:22:01.492Z,100923.53
2022-12-25T02:24:22.829Z,100925.16
2022-12-25T02:26:54.297Z,100928.84
2022-12-25T02:29:04.496Z,100920.22
2022-12-25T02:31:13.199Z,100899.91
2022-12-25T02:33:41.101Z,100915.84
2022-12-25T02:35:48.624Z,100916.06
2022-12-25T02:37:57.684Z,100911.72
2022-12-25T02:40:06.758Z,100917.72
2022-12-25T02:42:15.163Z,100910.09
2022-12-25T02:44:41.427Z,100904.69
2022-12-25T02:47:03.401Z,100914.31
2022-12-25T02:49:27.991Z,100921.06
2022-12-25T02:51:54.672Z,100926.53
2022-12-25T02:54:17.927Z,100929.03
2022-12-25T02:56:41.456Z,100914.25
2022-12-25T02:59:04.687Z,100905.31
2022-12-25T03:01:32.040Z,100912.44
2022-12-25T03:03:58.398Z,100910.00
2022-12-25T03:06:23.351Z,100907.53
2022-12-25T03:08:34.992Z,100888.78
2022-12-25T03:10:59.827Z,100908.25
2022-12-25T03:13:07.591Z,100898.69
2022-12-25T03:15:30.627Z,100879.19
2022-12-25T03:17:36.249Z,100904.03
2022-12-25T03:19:57.200Z,100900.00
2022-12-25T03:22:17.916Z,100900.78
2022-12-25T03:24:38.740Z,100905.19
2022-12-25T03:26:57.432Z,100901.53
2022-12-25T03:29:00.854Z,100897.31
2022-12-25T03:31:12.500Z,100901.81
2022-12-25T03:33:44.326Z,100892.38
2022-12-25T03:36:02.785Z,100877.44
2022-12-25T03:38:37.676Z,100881.16
2022-12-25T03:41:10.311Z,100879.38
2022-12-25T03:43:52.563Z,100881.25
2022-12-25T03:46:17.270Z,100877.75
2022-12-25T03:48:41.470Z,100869.13
2022-12-25T03:51:06.326Z,100867.34
2022-12-25T03:53:35.165Z,100868.94
2022-12-25T03:55:54.429Z,100865.34
2022-12-25T03:58:15.253Z,100849.97
2022-12-25T04:00:36.533Z,100846.38
2022-12-25T04:02:57.755Z,100829.72
2022-12-25T04:05:20.274Z,100825.56
2022-12-25T04:07:40.995Z,100825.59
2022-12-25T04:10:02.267Z,100835.22
2022-12-25T04:12:23.900Z,100821.78
2022-12-25T04:14:44.653Z,100840.38
2022-12-25T04:17:05.458Z,100864.72
2022-12-25T04:19:27.865Z,100849.81
2022-12-25T04:21:50.098Z,100855.09
2022-12-25T04:24:10.846Z,100858.78
2022-12-25T04:26:32.491Z,100866.53
2022-12-25T04:28:54.470Z,100863.66
2022-12-25T04:31:19.337Z,100862.63
2022-12-25T04:33:40.509Z,100869.66
2022-12-25T04:36:05.349Z,100865.44
2022-12-25T04:38:10.125Z,100863.81
2022-12-25T04:40:13.773Z,100865.41
2022-12-25T04:42:17.320Z,100857.59
2022-12-25T04:44:20.706Z,100855.13
2022-12-25T04:46:24.056Z,100852.63
2022-12-25T04:48:28.681Z,100848.28
2022-12-25T04:50:31.988Z,100838.31
2022-12-25T04:52:36.441Z,100860.41
2022-12-25T04:54:41.367Z,100844.88
2022-12-25T04:56:45.927Z,100844.88
2022-12-25T04:58:49.945Z,100846.53
2022-12-25T05:00:53.306Z,100845.78
2022-12-25T05:02:56.879Z,100844.81
2022-12-25T05:05:00.386Z,100849.19
2022-12-25T05:07:03.954Z,100850.91
2022-12-25T05:09:07.692Z,100841.22
2022-12-25T05:11:15.221Z,100844.69
2022-12-25T05:13:18.776Z,100848.03
2022-12-25T05:15:22.283Z,100836.75
2022-12-25T05:17:25.735Z,100832.47
2022-12-25T05:19:29.163Z,100839.38
2022-12-25T05:21:32.533Z,100830.56
2022-12-25T05:23:35.865Z,100827.28
2022-12-25T05:25:40.721Z,100822.00
2022-12-25T05:27:48.786Z,100817.69
2022-12-25T05:29:57.027Z,100813.31
2022-12-25T05:32:00.540Z,100807.44
2022-12-25T05:34:04.589Z,100808.31
2022-12-25T05:36:10.611Z,100790.06
2022-12-25T05:38:13.997Z,100784.91
2022-12-25T05:40:17.624Z,100777.09
2022-12-25T05:42:21.136Z,100780.63
2022-12-25T05:44:25.892Z,100786.38
2022-12-25T05:46:29.429Z,100795.75
2022-12-25T05:48:33.197Z,100801.59
2022-12-25T05:50:38.601Z,100800.63
2022-12-25T05:52:42.192Z,100804.25
2022-12-25T05:54:46.753Z,100803.47
2022-12-25T05:56:50.221Z,100803.63
2022-12-25T05:58:53.600Z,100796.09
2022-12-25T06:00:58.294Z,100796.09
2022-12-25T06:03:01.799Z,100799.50
2022-12-25T06:05:05.893Z,100799.53
2022-12-25T06:07:09.388Z,100797.03
2022-12-25T06:09:14.141Z,100784.00
2022-12-25T06:11:17.686Z,100782.25
2022-12-25T06:13:21.065Z,100781.38
2022-12-25T06:15:24.494Z,100764.59
2022-12-25T06:17:29.179Z,100783.13
2022-12-25T06:19:32.468Z,100770.31
2022-12-25T06:21:36.020Z,100746.28
2022-12-25T06:23:40.234Z,100772.69
2022-12-25T06:25:43.702Z,100778.66
2022-12-25T06:27:47.086Z,100776.78
2022-12-25T06:29:50.502Z,100777.53
2022-12-25T06:31:57.217Z,100762.78
2022-12-25T06:34:02.105Z,100763.88
2022-12-25T06:36:07.492Z,100768.34
2022-12-25T06:38:10.814Z,100750.91
2022-12-25T06:40:14.703Z,100763.88
2022-12-25T06:42:18.207Z,100743.03
2022-12-25T06:44:22.317Z,100723.59
2022-12-25T06:46:27.738Z,100726.34
2022-12-25T06:48:35.181Z,100703.78
2022-12-25T06:50:43.482Z,100709.69
2022-12-25T06:52:47.127Z,100727.25
2022-12-25T06:54:50.444Z,100742.88
2022-12-25T06:56:53.776Z,100736.72
2022-12-25T06:58:59.271Z,100738.25
2022-12-25T07:01:15.485Z,100733.06
2022-12-25T07:03:22.544Z,100735.75
2022-12-25T07:05:25.900Z,100733.97
2022-12-25T07:07:30.617Z,100714.91
2022-12-25T07:09:34.370Z,100703.00
2022-12-25T07:11:37.951Z,100690.91
2022-12-25T07:13:41.690Z,100688.34
2022-12-25T07:15:45.009Z,100681.31
2022-12-25T07:17:48.583Z,100683.13
2022-12-25T07:19:52.452Z,100652.41
2022-12-25T07:21:55.849Z,100673.44
2022-12-25T07:24:00.520Z,100686.72
2022-12-25T07:26:04.431Z,100688.59
2022-12-25T07:28:07.745Z,100640.31
2022-12-25T07:30:12.247Z,100691.69
2022-12-25T07:32:15.713Z,100638.78
2022-12-25T07:34:19.692Z,100681.22
2022-12-25T07:36:23.185Z,100651.25
2022-12-25T07:38:26.946Z,100660.25
2022-12-25T07:40:31.836Z,100675.16
2022-12-25T07:42:35.232Z,100670.72
2022-12-25T07:44:38.670Z,100668.16
2022-12-25T07:46:42.121Z,100676.81
2022-12-25T07:48:45.706Z,100669.94
2022-12-25T07:50:49.000Z,100657.72
2022-12-25T07:52:52.270Z,100666.50
2022-12-25T07:54:55.707Z,100668.06
2022-12-25T07:57:01.972Z,100669.88
2022-12-25T07:59:05.552Z,100670.91
2022-12-25T08:01:11.524Z,100685.75
2022-12-25T08:03:16.918Z,100678.66
2022-12-25T08:05:20.397Z,100677.03
2022-12-25T08:07:24.637Z,100675.28
2022-12-25T08:09:28.015Z,100670.19
2022-12-25T08:11:31.379Z,100668.50
2022-12-25T08:13:36.990Z,100673.88
2022-12-25T08:15:40.875Z,100669.66
2022-12-25T08:17:44.177Z,100667.94
2022-12-25T08:19:47.569Z,100659.50
2022-12-25T08:21:50.940Z,100666.41
2022-12-25T08:23:54.399Z,100671.41
2022-12-25T08:26:04.622Z,100669.56
2022-12-25T08:28:09.110Z,100649.44
2022-12-25T08:30:14.606Z,100656.63
2022-12-25T08:32:18.167Z,100632.28
2022-12-25T08:34:21.932Z,100616.53
2022-12-25T08:36:25.983Z,100611.28
2022-12-25T08:38:29.510Z,100618.19
2022-12-25T08:40:33.436Z,100628.63
2022-12-25T08:42:36.857Z,100634.63
2022-12-25T08:44:40.378Z,100630.97
2022-12-25T08:46:45.203Z,100659.78
2022-12-25T08:48:50.257Z,100672.88
2022-12-25T08:50:54.509Z,100679.72
2022-12-25T08:52:57.871Z,100680.63
2022-12-25T08:55:01.301Z,100691.22
2022-12-25T08:57:05.046Z,100681.75
2022-12-25T08:59:08.426Z,100670.38
2022-12-25T09:01:12.843Z,100662.66
2022-12-25T09:03:18.012Z,100670.03
2022-12-25T09:05:21.485Z,100656.03
2022-12-25T09:07:24.849Z,100649.16
2022-12-25T09:09:28.643Z,100651.50
2022-12-25T09:11:32.027Z,100647.31
2022-12-25T09:13:35.771Z,100650.81
2022-12-25T09:15:39.555Z,100653.19
2022-12-25T09:17:42.967Z,100648.72
2022-12-25T09:19:47.783Z,100648.75
2022-12-25T09:21:51.080Z,100656.66
2022-12-25T09:23:54.507Z,100634.00
2022-12-25T09:25:59.990Z,100645.41
2022-12-25T09:28:03.347Z,100653.66
2022-12-25T09:30:08.106Z,100654.94
2022-12-25T09:32:11.565Z,100677.00
2022-12-25T09:34:18.766Z,100682.41
2022-12-25T09:36:23.871Z,100679.72
2022-12-25T09:38:27.969Z,100658.31
2022-12-25T09:40:33.272Z,100682.84
2022-12-25T09:42:36.858Z,100689.81
2022-12-25T09:44:45.856Z,100688.19
2022-12-25T09:46:54.997Z,100689.94
2022-12-25T09:49:04.218Z,100698.66
2022-12-25T09:51:11.322Z,100700.41
2022-12-25T09:53:20.557Z,100707.44
2022-12-25T09:55:26.547Z,100708.94
2022-12-25T09:57:30.039Z,100704.41
2022-12-25T09:59:33.405Z,100708.03
2022-12-25T10:01:42.239Z,100696.44
2022-12-25T10:04:11.296Z,100693.72
2022-12-25T10:06:20.212Z,100676.31
2022-12-25T10:08:38.806Z,100686.97
2022-12-25T10:10:52.282Z,100692.28
2022-12-25T10:13:08.330Z,100688.97
2022-12-25T10:15:27.441Z,100702.91
2022-12-25T10:17:41.472Z,100679.91
2022-12-25T10:19:53.671Z,100679.72
2022-12-25T10:22:02.380Z,100658.63
2022-12-25T10:24:19.756Z,100655.22
2022-12-25T10:26:25.399Z,100644.97
2022-12-25T10:28:35.948Z,100638.16
2022-12-25T10:30:42.059Z,100637.16
2022-12-25T10:32:47.604Z,100639.09
2022-12-25T10:34:51.433Z,100627.47
2022-12-25T10:36:54.837Z,100632.03
2022-12-25T10:38:58.718Z,100630.31
2022-12-25T10:41:19.011Z,100617.28
2022-12-25T10:43:26.563Z,100610.38
2022-12-25T10:45:29.953Z,100606.88
2022-12-25T10:47:37.917Z,100608.59
2022-12-25T10:49:41.501Z,100609.25
2022-12-25T10:51:45.159Z,100618.81
2022-12-25T10:53:48.509Z,100623.94
2022-12-25T10:55:59.789Z,100608.06
2022-12-25T10:58:04.515Z,100615.34
2022-12-25T11:00:21.584Z,100616.13
2022-12-25T11:02:28.658Z,100599.44
2022-12-25T11:04:36.756Z,100605.06
2022-12-25T11:06:40.143Z,100603.22
2022-12-25T11:08:43.465Z,100599.75
2022-12-25T11:10:54.534Z,100570.97
2022-12-25T11:12:58.615Z,100571.97
2022-12-25T11:15:25.372Z,100565.09
2022-12-25T11:17:29.398Z,100558.28
2022-12-25T11:19:33.747Z,100541.69
2022-12-25T11:21:38.380Z,100530.53
2022-12-25T11:23:47.366Z,100507.97
2022-12-25T11:25:58.872Z,100511.38
2022-12-25T11:28:04.107Z,100506.13
2022-12-25T11:30:16.367Z,100501.75
2022-12-25T11:32:23.504Z,100496.63
2022-12-25T11:34:32.341Z,100482.69
2022-12-25T11:36:45.352Z,100487.16
2022-12-25T11:38:48.879Z,100488.81
2022-12-25T11:40:54.704Z,100480.16
2022-12-25T11:43:08.207Z,100466.34
2022-12-25T11:45:17.813Z,100462.91
2022-12-25T11:47:27.016Z,100461.50
2022-12-25T11:49:31.954Z,100452.97
2022-12-25T11:51:39.937Z,100447.59
2022-12-25T11:53:49.603Z,100445.97
2022-12-25T11:55:57.855Z,100451.19
2022-12-25T11:58:07.342Z,100453.84
2022-12-25T12:00:16.610Z,100442.56
2022-12-25T12:02:28.445Z,100436.56
2022-12-25T12:04:42.556Z,100426.84
2022-12-25T12:06:51.960Z,100424.50
2022-12-25T12:09:06.397Z,100423.75
2022-12-25T12:11:19.224Z,100414.25
2022-12-25T12:13:36.535Z,100418.34
2022-12-25T12:15:44.885Z,100418.50
2022-12-25T12:17:48.371Z,100432.38
2022-12-25T12:19:52.571Z,100415.06
2022-12-25T12:21:58.040Z,100408.97
2022-12-25T12:24:06.440Z,100408.94
2022-12-25T12:26:19.897Z,100415.81
2022-12-25T12:28:27.190Z,100405.44
2022-12-25T12:30:32.447Z,100409.94
2022-12-25T12:32:41.780Z,100406.50
2022-12-25T12:34:50.506Z,100406.41
2022-12-25T12:37:01.619Z,100416.09
2022-12-25T12:39:06.253Z,100398.53
2022-12-25T12:41:12.085Z,100410.94
2022-12-25T12:43:29.357Z,100401.34
2022-12-25T12:45:35.760Z,100395.31
2022-12-25T12:47:43.268Z,100387.50
2022-12-25T12:50:01.869Z,100392.22
2022-12-25T12:52:08.386Z,100397.31
2022-12-25T12:54:20.582Z,100397.34
2022-12-25T12:56:25.390Z,100386.03
2022-12-25T12:58:33.545Z,100358.75
2022-12-25T13:00:47.642Z,100373.06
2022-12-25T13:03:27.674Z,100298.06
2022-12-25T13:05:39.054Z,100361.63
2022-12-25T13:07:54.455Z,100372.97
2022-12-25T13:10:07.745Z,100359.13
2022-12-25T13:12:14.987Z,100363.47
2022-12-25T13:14:21.634Z,100340.72
2022-12-25T13:16:28.355Z,100357.56
2022-12-25T13:18:34.917Z,100342.75
2022-12-25T13:20:45.854Z,100353.31
2022-12-25T13:22:52.893Z,100352.59
2022-12-25T13:24:57.944Z,100351.84
2022-12-25T13:27:01.995Z,100354.41
2022-12-25T13:29:11.338Z,100365.06
2022-12-25T13:31:19.610Z,100353.69
2022-12-25T13:33:23.308Z,100360.56
2022-12-25T13:35:28.687Z,100359.03
2022-12-25T13:37:32.752Z,100351.16
2022-12-25T13:39:37.879Z,100280.06
2022-12-25T13:42:01.365Z,100340.72
2022-12-25T13:44:07.749Z,100342.44
2022-12-25T13:46:14.078Z,100337.97
2022-12-25T13:48:20.128Z,100365.25
2022-12-25T13:50:27.060Z,100366.91
2022-12-25T13:52:37.407Z,100372.25
2022-12-25T13:54:41.501Z,100363.47
2022-12-25T13:56:49.385Z,100347.06
2022-12-25T13:58:53.020Z,100348.00
2022-12-25T14:00:58.635Z,100319.13
2022-12-25T14:03:02.641Z,100341.25
2022-12-25T14:05:24.141Z,100344.75
2022-12-25T14:07:28.554Z,100341.28
2022-12-25T14:09:33.862Z,100344.72
2022-12-25T14:11:37.480Z,100359.69
2022-12-25T14:13:43.873Z,100367.50
2022-12-25T14:15:48.263Z,100366.56
2022-12-25T14:17:53.110Z,100357.03
2022-12-25T14:20:07.800Z,100363.94
2022-12-25T14:22:19.019Z,100346.38
2022-12-25T14:24:25.725Z,100358.66
2022-12-25T14:26:32.536Z,100359.50
2022-12-25T14:28:37.715Z,100361.28
2022-12-25T14:30:43.454Z,100372.56
2022-12-25T14:32:51.920Z,100338.44
2022-12-25T14:34:57.889Z,100342.97
2022-12-25T14:37:02.566Z,100350.03
2022-12-25T14:39:08.189Z,100352.63
2022-12-25T14:41:33.473Z,100346.50
2022-12-25T14:43:40.392Z,100360.50
2022-12-25T14:45:43.770Z,100363.13
2022-12-25T14:47:52.760Z,100361.34
2022-12-25T14:49:56.730Z,100370.13
2022-12-25T14:52:00.307Z,100366.78
2022-12-25T14:54:15.277Z,100369.47
2022-12-25T14:56:21.260Z,100355.63
2022-12-25T14:58:28.630Z,100360.78
2022-12-25T15:00:35.766Z,100357.34
2022-12-25T15:02:46.686Z,100346.97
2022-12-25T15:04:50.419Z,100334.75
2022-12-25T15:06:56.551Z,100335.63
2022-12-25T15:09:01.608Z,100338.19
2022-12-25T15:11:05.403Z,100353.13
2022-12-25T15:13:09.229Z,100333.91
2022-12-25T15:15:12.621Z,100331.13
2022-12-25T15:17:25.354Z,100333.03
2022-12-25T15:19:37.375Z,100342.84
2022-12-25T15:21:44.364Z,100340.22
2022-12-25T15:23:48.106Z,100340.28
2022-12-25T15:25:51.798Z,100324.63
2022-12-25T15:27:55.378Z,100317.69
2022-12-25T15:30:09.861Z,100298.41
2022-12-25T15:32:20.343Z,100332.56
2022-12-25T15:34:23.753Z,100329.16
2022-12-25T15:36:28.307Z,100322.13
2022-12-25T15:38:36.545Z,100339.56
2022-12-25T15:40:40.853Z,100323.94
2022-12-25T15:42:45.393Z,100312.50
2022-12-25T15:44:48.745Z,100320.59
2022-12-25T15:46:52.533Z,100322.41
2022-12-25T15:48:57.493Z,100312.81
2022-12-25T15:51:00.907Z,100323.31
2022-12-25T15:53:04.737Z,100319.84
2022-12-25T15:55:09.042Z,100317.22
2022-12-25T15:57:19.506Z,100314.66
2022-12-25T15:59:23.849Z,100318.22
2022-12-25T16:01:27.285Z,100304.19
2022-12-25T16:03:31.006Z,100299.94
2022-12-25T16:05:35.796Z,100299.94
2022-12-25T16:07:39.775Z,100285.84
2022-12-25T16:09:43.830Z,100300.03
2022-12-25T16:11:48.240Z,100307.88
2022-12-25T16:13:51.592Z,100304.31
2022-12-25T16:15:54.983Z,100299.94
2022-12-25T16:17:58.411Z,100294.75
2022-12-25T16:20:01.735Z,100295.59
2022-12-25T16:22:12.810Z,100288.69
2022-12-25T16:24:16.229Z,100292.16
2022-12-25T16:26:19.846Z,100297.47
2022-12-25T16:28:23.248Z,100298.31
2022-12-25T16:30:26.620Z,100289.56
2022-12-25T16:32:30.260Z,100301.84
2022-12-25T16:34:33.623Z,100299.22
2022-12-25T16:36:37.751Z,100306.28
2022-12-25T16:38:42.526Z,100307.16
2022-12-25T16:40:46.719Z,100293.91
2022-12-25T16:42:50.096Z,100308.94
2022-12-25T16:44:54.207Z,100306.34
2022-12-25T16:46:57.624Z,100307.22
2022-12-25T16:49:01.126Z,100307.22
2022-12-25T16:51:09.739Z,100313.38
2022-12-25T16:53:13.343Z,100317.72
2022-12-25T16:55:18.461Z,100308.09
2022-12-25T16:57:21.813Z,100313.38
2022-12-25T16:59:25.108Z,100303.75
2022-12-25T17:01:28.734Z,100316.88
2022-12-25T17:03:32.536Z,100304.59
2022-12-25T17:05:36.242Z,100306.38
2022-12-25T17:07:39.660Z,100316.88
2022-12-25T17:09:44.760Z,100315.91
2022-12-25T17:11:49.554Z,100318.47
2022-12-25T17:13:52.865Z,100308.91
2022-12-25T17:15:56.325Z,100314.16
2022-12-25T17:17:59.715Z,100311.50
2022-12-25T17:20:03.985Z,100317.66
2022-12-25T17:22:07.612Z,100316.72
2022-12-25T17:24:11.634Z,100318.47
2022-12-25T17:26:15.058Z,100322.81
2022-12-25T17:28:19.796Z,100309.69
2022-12-25T17:30:23.303Z,100314.91
2022-12-25T17:32:26.665Z,100287.75
2022-12-25T17:34:30.232Z,100317.59
2022-12-25T17:36:34.056Z,100309.78
2022-12-25T17:38:38.059Z,100313.25
2022-12-25T17:40:41.389Z,100308.84
2022-12-25T17:42:44.761Z,100315.94
2022-12-25T17:44:49.522Z,100315.00
2022-12-25T17:46:53.022Z,100317.66
2022-12-25T17:48:59.157Z,100310.72
2022-12-25T17:51:03.107Z,100308.09
2022-12-25T17:53:06.648Z,100311.56
2022-12-25T17:55:10.645Z,100308.06
2022-12-25T17:57:14.138Z,100313.31
2022-12-25T17:59:19.130Z,100313.31
2022-12-25T18:01:25.305Z,100292.28
2022-12-25T18:03:28.812Z,100317.84
2022-12-25T18:05:35.890Z,100318.78
2022-12-25T18:07:39.523Z,100316.16
2022-12-25T18:09:42.850Z,100315.28
2022-12-25T18:11:46.541Z,100306.47
2022-12-25T18:13:53.453Z,100306.56
2022-12-25T18:15:56.951Z,100304.81
2022-12-25T18:18:01.835Z,100299.56
2022-12-25T18:20:05.928Z,100299.59
2022-12-25T18:22:09.279Z,100303.09
2022-12-25T18:24:12.759Z,100297.88
2022-12-25T18:26:16.213Z,100299.59
2022-12-25T18:28:19.681Z,100302.25
2022-12-25T18:30:23.071Z,100291.84
2022-12-25T18:32:28.318Z,100288.34
2022-12-25T18:34:33.282Z,100295.25
2022-12-25T18:36:36.944Z,100292.66
2022-12-25T18:38:40.388Z,100292.59
2022-12-25T18:40:44.811Z,100290.06
2022-12-25T18:42:52.315Z,100303.09
2022-12-25T18:44:58.386Z,100283.03
2022-12-25T18:47:01.767Z,100304.91
2022-12-25T18:49:05.313Z,100299.69
2022-12-25T18:51:12.653Z,100298.88
2022-12-25T18:53:17.398Z,100293.63
2022-12-25T18:55:20.805Z,100309.38
2022-12-25T18:57:24.262Z,100312.00
2022-12-25T18:59:29.245Z,100313.78
2022-12-25T19:01:32.722Z,100299.91
2022-12-25T19:03:36.165Z,100304.25
2022-12-25T19:05:40.342Z,100305.13
2022-12-25T19:07:45.067Z,100311.19
2022-12-25T19:09:48.550Z,100296.41
2022-12-25T19:11:53.609Z,100294.75
2022-12-25T19:13:57.634Z,100278.94
2022-12-25T19:16:01.095Z,100295.59
2022-12-25T19:18:04.581Z,100301.75
2022-12-25T19:20:09.244Z,100313.06
2022-12-25T19:22:12.941Z,100313.06
2022-12-25T19:24:17.670Z,100314.03
2022-12-25T19:26:21.835Z,100306.97
2022-12-25T19:28:25.653Z,100317.53
2022-12-25T19:30:29.112Z,100308.75
2022-12-25T19:32:32.561Z,100314.91
2022-12-25T19:34:36.118Z,100314.00
2022-12-25T19:36:40.171Z,100321.81
2022-12-25T19:38:44.438Z,100332.25
2022-12-25T19:41:01.181Z,100322.59
2022-12-25T19:43:04.733Z,100328.69
2022-12-25T19:45:09.082Z,100279.41
2022-12-25T19:47:12.574Z,100323.38
2022-12-25T19:49:16.128Z,100331.31
2022-12-25T19:51:22.042Z,100318.16
2022-12-25T19:53:25.771Z,100323.38
2022-12-25T19:55:29.146Z,100331.31
2022-12-25T19:57:34.396Z,100342.56
2022-12-25T19:59:37.728Z,100332.19
2022-12-25T20:01:41.960Z,100343.50
2022-12-25T20:03:46.627Z,100337.34
2022-12-25T20:05:50.079Z,100326.78
2022-12-25T20:07:53.528Z,100333.00
2022-12-25T20:09:56.890Z,100326.13
2022-12-25T20:12:00.296Z,100327.78
2022-12-25T20:14:05.697Z,100328.75
2022-12-25T20:16:10.142Z,100323.56
2022-12-25T20:18:13.507Z,100313.13
2022-12-25T20:20:16.979Z,100322.75
2022-12-25T20:22:20.308Z,100318.31
2022-12-25T20:24:24.587Z,100327.06
2022-12-25T20:26:30.381Z,100320.06
2022-12-25T20:28:34.891Z,100328.88
2022-12-25T20:30:41.262Z,100321.06
2022-12-25T20:32:50.448Z,100326.25
2022-12-25T20:34:54.170Z,100328.97
2022-12-25T20:36:57.737Z,100315.75
2022-12-25T20:39:01.420Z,100309.72
2022-12-25T20:43:30.165Z,100313.34
2022-12-25T20:45:33.739Z,100314.19
2022-12-25T20:47:38.887Z,100324.69
2022-12-25T20:49:42.218Z,100332.56
2022-12-25T20:51:45.522Z,100327.25
2022-12-25T20:53:49.833Z,100321.19
2022-12-25T20:55:53.178Z,100315.38
2022-12-25T20:57:56.583Z,100318.72
2022-12-25T20:59:59.909Z,100319.47
2022-12-25T21:02:03.356Z,100317.63
2022-12-25T21:04:12.916Z,100327.25
2022-12-25T21:06:19.310Z,100316.75
2022-12-25T21:08:26.129Z,100300.91
2022-12-25T21:10:29.516Z,100327.22
2022-12-25T21:12:32.910Z,100322.78
2022-12-25T21:14:37.054Z,100321.13
2022-12-25T21:16:40.493Z,100333.28
2022-12-25T21:18:43.897Z,100341.94
2022-12-25T21:20:50.815Z,100321.78
2022-12-25T21:22:54.141Z,100328.94
2022-12-25T21:24:57.590Z,100324.47
2022-12-25T21:27:01.075Z,100333.19
2022-12-25T21:29:04.804Z,100335.91
2022-12-25T21:31:09.027Z,100335.03
2022-12-25T21:33:45.684Z,100335.88
2022-12-25T21:35:50.414Z,100327.94
2022-12-25T21:37:53.811Z,100339.28
2022-12-25T21:39:57.145Z,100319.00
2022-12-25T21:42:00.540Z,100346.19
2022-12-25T21:44:04.020Z,100355.81
2022-12-25T21:46:09.420Z,100353.28
2022-12-25T21:48:13.328Z,100348.06
2022-12-25T21:50:39.083Z,100365.47
2022-12-25T21:52:44.153Z,100360.22
2022-12-25T21:54:47.468Z,100362.00
2022-12-25T21:56:51.179Z,100358.56
2022-12-25T21:58:54.587Z,100361.22
2022-12-25T22:01:03.218Z,100362.06
2022-12-25T22:03:06.692Z,100355.19
2022-12-25T22:05:30.492Z,100361.31
2022-12-25T22:07:33.085Z,100356.06
2022-12-25T22:09:38.352Z,100331.44
2022-12-25T22:11:59.634Z,100355.22
2022-12-25T22:14:16.923Z,100368.25
2022-12-25T22:16:38.285Z,100362.16
2022-12-25T22:18:59.504Z,100362.16
2022-12-25T22:21:02.938Z,100362.13
2022-12-25T22:23:06.501Z,100365.66
2022-12-25T22:25:12.009Z,100372.59
2022-12-25T22:27:15.390Z,100376.94
2022-12-25T22:29:18.717Z,100371.69
2022-12-25T22:31:22.152Z,100389.25
2022-12-25T22:33:27.946Z,100381.38
2022-12-25T22:35:31.369Z,100375.25
2022-12-25T22:37:35.865Z,100391.75
2022-12-25T22:39:39.361Z,100396.97
2022-12-25T22:41:44.096Z,100397.06
2022-12-25T22:46:10.840Z,100407.72
2022-12-25T22:48:14.358Z,100411.25
2022-12-25T22:50:17.758Z,100420.81
2022-12-25T22:52:21.186Z,100407.66
2022-12-25T22:54:25.700Z,100420.03
2022-12-25T22:56:29.117Z,100407.88
2022-12-25T22:58:34.338Z,100410.44
2022-12-25T23:00:44.243Z,100419.09
2022-12-25T23:02:49.527Z,100414.78
2022-12-25T23:04:53.050Z,100421.84
2022-12-25T23:06:56.671Z,100419.22
2022-12-25T23:09:00.335Z,100423.63
2022-12-25T23:11:04.643Z,100416.56
2022-12-25T23:13:27.869Z,100415.63
2022-12-25T23:15:32.740Z,100416.56
2022-12-25T23:17:53.799Z,100420.91
2022-12-25T23:20:15.624Z,100428.84
2022-12-25T23:22:35.913Z,100425.38
2022-12-25T23:24:57.015Z,100431.53
2022-12-25T23:27:00.404Z,100439.34
2022-12-25T23:29:21.586Z,100430.63
2022-12-25T23:31:29.295Z,100438.47
2022-12-25T23:33:32.925Z,100437.59
2022-12-25T23:35:36.265Z,100434.13
2022-12-25T23:37:39.667Z,100438.50
2022-12-25T23:39:42.996Z,100437.69
2022-12-25T23:41:46.394Z,100438.47
2022-12-25T23:43:49.796Z,100425.31
2022-12-25T23:45:53.071Z,100430.44
2022-12-25T23:47:58.139Z,100419.03
2022-12-25T23:50:01.505Z,100413.69
2022-12-25T23:52:05.058Z,100420.66
2022-12-25T23:54:09.256Z,100419.69
2022-12-25T23:56:13.294Z,100427.41
2022-12-25T23:58:16.604Z,100433.38
